Time;durP1;ratioP1;P1;durP2;ratioP2;P2;SDS_P1;SDS_P2;PMS_P1;PMS_P2;Temp;Humidity;BMP_temperature;BMP_pressure;BME280_temperature;BME280_humidity;BME280_pressure;Samples;Min_cycle;Max_cycle;Signal;HPM_P1;HPM_P2
2022/03/15 00:00:38;;;;;;;14.90;4.63;;;;;;;;;;5015510;28;20211;-70
2022/03/15 00:03:04;;;;;;;12.23;4.10;;;;;;;;;;5012745;28;20187;-69
2022/03/15 00:05:30;;;;;;;7.97;4.10;;;;;;;;;;5014387;28;20275;-71
2022/03/15 00:07:55;;;;;;;9.83;3.90;;;;;;;;;;5021489;28;20259;-70
2022/03/15 00:10:21;;;;;;;12.00;3.73;;;;;;;;;;5012905;28;20467;-70
2022/03/15 00:12:47;;;;;;;8.97;3.43;;;;;;;;;;5010285;28;20180;-70
2022/03/15 00:15:12;;;;;;;11.40;3.90;;;;;;;;;;5012800;28;20268;-68
2022/03/15 00:17:39;;;;;;;12.67;3.63;;;;;;;;;;5016028;28;20244;-70
2022/03/15 00:20:05;;;;;;;14.53;4.33;;;;;;;;;;5008555;28;20558;-69
2022/03/15 00:22:34;;;;;;;11.30;4.30;;;;;;;;;;5025058;28;22197;-69
2022/03/15 00:25:02;;;;;;;10.90;4.63;;;;;;;;;;5013948;28;20447;-69
2022/03/15 00:27:27;;;;;;;8.30;4.00;;;;;;;;;;5011791;28;20455;-70
2022/03/15 00:29:53;;;;;;;8.10;3.60;;;;;;;;;;5014317;28;20466;-69
2022/03/15 00:32:20;;;;;;;10.20;3.97;;;;;;;;;;5012188;28;20177;-69
2022/03/15 00:34:45;;;;;;;8.90;4.10;;;;;;;;;;5013380;28;20204;-70
2022/03/15 00:37:11;;;;;;;10.07;3.60;;;;;;;;;;5009547;28;20916;-69
2022/03/15 00:39:36;;;;;;;6.80;3.40;;;;;;;;;;5003023;28;20778;-71
2022/03/15 00:42:02;;;;;;;8.60;4.03;;;;;;;;;;5012543;28;20584;-70
2022/03/15 00:44:27;;;;;;;9.90;3.90;;;;;;;;;;5009372;28;20189;-69
2022/03/15 00:46:53;;;;;;;9.17;3.90;;;;;;;;;;5017530;28;20191;-71
2022/03/15 00:49:18;;;;;;;13.37;4.70;;;;;;;;;;5013074;28;20181;-71
2022/03/15 00:51:44;;;;;;;9.60;3.80;;;;;;;;;;5014074;28;20227;-70
2022/03/15 00:54:09;;;;;;;12.77;3.60;;;;;;;;;;5008230;28;20187;-70
2022/03/15 00:56:34;;;;;;;9.07;4.20;;;;;;;;;;5005119;28;20654;-69
2022/03/15 00:59:00;;;;;;;7.07;3.17;;;;;;;;;;5010275;28;20188;-70
2022/03/15 01:01:25;;;;;;;7.97;3.67;;;;;;;;;;5014309;28;20253;-71
2022/03/15 01:03:51;;;;;;;15.30;4.40;;;;;;;;;;5007575;28;20185;-70
2022/03/15 01:06:16;;;;;;;15.33;5.67;;;;;;;;;;5012043;28;20600;-70
2022/03/15 01:08:42;;;;;;;14.47;4.70;;;;;;;;;;5016328;28;20534;-70
2022/03/15 01:11:07;;;;;;;8.97;4.90;;;;;;;;;;5028325;22;20239;-68
2022/03/15 01:13:32;;;;;;;14.07;5.53;;;;;;;;;;5032832;28;20179;-68
2022/03/15 01:15:58;;;;;;;14.93;5.80;;;;;;;;;;5046677;28;20723;-68
2022/03/15 01:18:23;;;;;;;15.33;5.30;;;;;;;;;;5037227;28;20183;-68
2022/03/15 01:20:51;;;;;;;15.10;6.17;;;;;;;;;;5037403;28;20848;-68
2022/03/15 01:23:16;;;;;;;12.63;5.93;;;;;;;;;;5037428;28;20740;-68
2022/03/15 01:25:42;;;;;;;22.30;6.00;;;;;;;;;;5035081;28;20438;-68
2022/03/15 01:28:07;;;;;;;16.30;5.10;;;;;;;;;;5034049;28;20179;-68
2022/03/15 01:30:33;;;;;;;14.70;4.80;;;;;;;;;;5036308;28;20200;-68
2022/03/15 01:32:58;;;;;;;15.40;6.20;;;;;;;;;;5035245;28;20187;-68
2022/03/15 01:35:24;;;;;;;9.27;4.83;;;;;;;;;;5038436;28;20182;-68
2022/03/15 01:37:49;;;;;;;11.33;5.27;;;;;;;;;;5039106;28;20192;-68
2022/03/15 01:40:14;;;;;;;12.67;5.67;;;;;;;;;;5034482;28;20184;-68
2022/03/15 01:42:40;;;;;;;13.10;6.00;;;;;;;;;;5035782;28;20315;-68
2022/03/15 01:45:06;;;;;;;15.73;5.63;;;;;;;;;;5034627;28;20543;-68
2022/03/15 01:47:31;;;;;;;15.60;6.63;;;;;;;;;;5036604;28;20315;-68
2022/03/15 01:49:56;;;;;;;12.33;6.70;;;;;;;;;;5033528;28;20916;-68
2022/03/15 01:52:22;;;;;;;18.23;6.20;;;;;;;;;;5030714;28;21909;-68
2022/03/15 01:54:47;;;;;;;18.87;6.60;;;;;;;;;;5035652;28;20187;-68
2022/03/15 01:57:13;;;;;;;16.50;6.60;;;;;;;;;;5030903;28;20187;-68
2022/03/15 01:59:39;;;;;;;21.10;7.63;;;;;;;;;;5033222;28;20715;-68
2022/03/15 02:02:04;;;;;;;17.53;7.43;;;;;;;;;;5029090;28;20584;-68
2022/03/15 02:04:32;;;;;;;14.33;7.37;;;;;;;;;;5037802;28;20525;-68
2022/03/15 02:07:15;;;;;;;11.73;6.70;;;;;;;;;;5028901;28;20183;-67
2022/03/15 02:09:41;;;;;;;16.90;7.00;;;;;;;;;;5038242;28;20536;-68
2022/03/15 02:12:07;;;;;;;15.30;6.67;;;;;;;;;;5031366;28;20484;-67
2022/03/15 02:14:32;;;;;;;20.87;7.20;;;;;;;;;;5029870;28;20540;-67
2022/03/15 02:16:57;;;;;;;16.20;7.17;;;;;;;;;;5033838;28;20179;-68
2022/03/15 02:19:23;;;;;;;12.10;7.10;;;;;;;;;;5025503;28;20659;-67
2022/03/15 02:21:49;;;;;;;14.17;7.00;;;;;;;;;;5032900;28;20261;-67
2022/03/15 02:24:14;;;;;;;16.73;7.10;;;;;;;;;;5035176;28;20183;-67
2022/03/15 02:26:40;;;;;;;15.60;8.10;;;;;;;;;;5035581;28;20423;-68
2022/03/15 02:29:05;;;;;;;17.13;7.47;;;;;;;;;;5033398;28;20215;-67
2022/03/15 02:31:30;;;;;;;21.83;8.93;;;;;;;;;;5033108;28;20680;-67
2022/03/15 02:33:56;;;;;;;13.70;7.57;;;;;;;;;;5035368;28;20564;-68
2022/03/15 02:36:21;;;;;;;14.67;7.40;;;;;;;;;;5027161;28;20188;-68
2022/03/15 02:38:47;;;;;;;19.93;7.10;;;;;;;;;;5031110;28;20183;-68
2022/03/15 02:41:13;;;;;;;15.30;7.30;;;;;;;;;;5031225;28;20226;-68
2022/03/15 02:43:39;;;;;;;15.97;8.00;;;;;;;;;;5032511;28;20187;-67
2022/03/15 02:46:05;;;;;;;14.40;7.37;;;;;;;;;;5036507;28;20434;-68
2022/03/15 02:48:30;;;;;;;20.00;8.17;;;;;;;;;;5030388;28;20465;-67
2022/03/15 02:51:01;;;;;;;21.07;8.30;;;;;;;;;;5034285;28;20428;-68
2022/03/15 02:53:26;;;;;;;24.90;8.73;;;;;;;;;;5031380;28;20180;-68
2022/03/15 02:55:51;;;;;;;17.27;8.23;;;;;;;;;;5030385;28;20820;-68
2022/03/15 02:58:19;;;;;;;14.77;8.20;;;;;;;;;;5032977;28;20184;-68
2022/03/15 03:00:44;;;;;;;14.80;8.17;;;;;;;;;;5034163;28;20196;-68
2022/03/15 03:03:09;;;;;;;21.43;8.30;;;;;;;;;;5033025;28;20491;-68
2022/03/15 03:05:35;;;;;;;17.70;8.50;;;;;;;;;;5030185;28;20192;-67
2022/03/15 03:08:04;;;;;;;20.77;8.97;;;;;;;;;;5033329;28;20199;-68
2022/03/15 03:10:30;;;;;;;12.27;7.33;;;;;;;;;;5032583;28;20207;-68
2022/03/15 03:12:55;;;;;;;18.43;8.53;;;;;;;;;;5035543;28;20535;-68
2022/03/15 03:15:22;;;;;;;15.90;7.57;;;;;;;;;;5032675;28;20187;-68
2022/03/15 03:17:48;;;;;;;23.47;8.97;;;;;;;;;;5030200;28;20230;-68
2022/03/15 03:20:19;;;;;;;13.57;8.20;;;;;;;;;;5029443;28;20533;-67
2022/03/15 03:22:49;;;;;;;13.00;8.13;;;;;;;;;;5032123;28;20175;-68
2022/03/15 03:25:15;;;;;;;19.67;8.83;;;;;;;;;;5034498;28;20854;-68
2022/03/15 03:27:41;;;;;;;14.50;8.63;;;;;;;;;;5037548;28;20434;-67
2022/03/15 03:30:06;;;;;;;17.03;8.63;;;;;;;;;;5034889;28;20188;-68
2022/03/15 03:32:32;;;;;;;18.67;8.10;;;;;;;;;;5036718;28;20235;-67
2022/03/15 03:34:57;;;;;;;24.37;10.00;;;;;;;;;;5036448;28;20191;-67
2022/03/15 03:37:24;;;;;;;13.27;8.87;;;;;;;;;;5039670;28;20704;-68
2022/03/15 03:39:51;;;;;;;14.33;7.47;;;;;;;;;;5037705;28;20664;-67
2022/03/15 03:42:17;;;;;;;18.30;8.70;;;;;;;;;;5035577;28;20497;-67
2022/03/15 03:44:42;;;;;;;19.23;9.77;;;;;;;;;;5035711;28;20451;-68
2022/03/15 03:47:08;;;;;;;16.63;8.83;;;;;;;;;;5036241;28;20195;-68
2022/03/15 03:49:33;;;;;;;22.90;9.93;;;;;;;;;;5033515;28;20188;-68
2022/03/15 03:51:59;;;;;;;19.80;9.23;;;;;;;;;;5036597;28;20200;-68
2022/03/15 03:54:25;;;;;;;16.43;9.80;;;;;;;;;;5036263;28;20184;-67
2022/03/15 03:56:50;;;;;;;13.33;9.40;;;;;;;;;;5035381;28;20187;-67
2022/03/15 03:59:16;;;;;;;15.53;9.30;;;;;;;;;;5034167;28;20187;-68
2022/03/15 04:01:42;;;;;;;20.37;9.53;;;;;;;;;;5029436;28;20215;-68
2022/03/15 04:04:07;;;;;;;15.83;9.23;;;;;;;;;;5029643;28;20183;-67
2022/03/15 04:06:33;;;;;;;15.50;8.80;;;;;;;;;;5036583;28;20181;-68
2022/03/15 04:08:59;;;;;;;14.23;8.90;;;;;;;;;;5052736;28;20290;-68
2022/03/15 04:11:25;;;;;;;10.87;7.90;;;;;;;;;;5035593;28;20558;-67
2022/03/15 04:13:51;;;;;;;14.83;8.17;;;;;;;;;;5034991;28;20191;-68
2022/03/15 04:16:17;;;;;;;11.43;7.80;;;;;;;;;;5035480;28;20625;-68
2022/03/15 04:18:42;;;;;;;17.50;9.20;;;;;;;;;;5032991;28;20535;-67
2022/03/15 04:21:07;;;;;;;15.03;8.27;;;;;;;;;;5038634;28;20472;-68
2022/03/15 04:23:33;;;;;;;16.07;8.40;;;;;;;;;;5034614;28;20204;-68
2022/03/15 04:25:58;;;;;;;13.70;8.23;;;;;;;;;;5034880;28;20177;-68
2022/03/15 04:28:24;;;;;;;14.77;7.43;;;;;;;;;;5031710;28;20234;-68
2022/03/15 04:30:49;;;;;;;12.47;8.37;;;;;;;;;;5039406;28;20211;-68
2022/03/15 04:33:15;;;;;;;11.00;8.13;;;;;;;;;;5033851;28;20647;-68
2022/03/15 04:35:41;;;;;;;12.50;7.77;;;;;;;;;;5036846;28;20279;-68
2022/03/15 04:38:06;;;;;;;10.43;7.60;;;;;;;;;;5037493;28;20442;-68
2022/03/15 04:40:31;;;;;;;12.73;7.73;;;;;;;;;;5037065;28;20230;-68
2022/03/15 04:42:59;;;;;;;12.73;8.43;;;;;;;;;;5035332;28;20188;-68
2022/03/15 04:45:24;;;;;;;13.53;8.67;;;;;;;;;;5028556;28;20183;-68
2022/03/15 04:47:50;;;;;;;12.90;7.60;;;;;;;;;;5035717;28;20773;-68
2022/03/15 04:50:17;;;;;;;11.57;7.63;;;;;;;;;;5039286;28;20411;-67
2022/03/15 04:52:42;;;;;;;11.47;7.43;;;;;;;;;;5035536;28;20758;-67
2022/03/15 04:55:08;;;;;;;14.83;8.43;;;;;;;;;;5032752;28;20524;-68
2022/03/15 04:57:33;;;;;;;14.80;8.60;;;;;;;;;;5037680;28;20805;-68
2022/03/15 04:59:59;;;;;;;13.03;9.10;;;;;;;;;;5033821;28;20202;-67
2022/03/15 05:02:24;;;;;;;13.10;9.27;;;;;;;;;;5033516;28;20226;-68
2022/03/15 05:04:51;;;;;;;12.70;8.30;;;;;;;;;;5046811;28;20455;-68
2022/03/15 05:07:16;;;;;;;11.30;8.87;;;;;;;;;;5037956;28;20179;-68
2022/03/15 05:11:06;;;;;;;13.30;9.00;;;;;;;;;;5035247;28;20464;-68
2022/03/15 05:12:27;;;;;;;17.30;9.63;;;;;;;;;;5032450;28;20257;-68
2022/03/15 05:14:52;;;;;;;16.20;9.60;;;;;;;;;;5029184;28;21080;-68
2022/03/15 05:17:19;;;;;;;14.83;10.13;;;;;;;;;;5033106;28;20237;-68
2022/03/15 05:19:45;;;;;;;16.93;8.93;;;;;;;;;;5035006;28;20286;-68
2022/03/15 05:22:10;;;;;;;15.87;8.90;;;;;;;;;;5034650;28;20462;-67
2022/03/15 05:24:35;;;;;;;13.77;8.70;;;;;;;;;;5034714;28;20186;-68
2022/03/15 05:27:01;;;;;;;12.60;8.23;;;;;;;;;;5039129;28;20179;-68
2022/03/15 05:29:26;;;;;;;10.50;8.03;;;;;;;;;;5039639;28;20675;-68
2022/03/15 05:31:51;;;;;;;12.53;8.27;;;;;;;;;;5038335;28;20691;-68
2022/03/15 05:34:17;;;;;;;12.00;8.43;;;;;;;;;;5036154;28;20916;-68
2022/03/15 05:36:43;;;;;;;11.60;8.23;;;;;;;;;;5029864;28;20222;-68
2022/03/15 05:39:09;;;;;;;10.93;8.17;;;;;;;;;;5034270;28;20631;-67
2022/03/15 05:41:35;;;;;;;15.20;8.87;;;;;;;;;;5036965;28;20211;-68
2022/03/15 05:44:00;;;;;;;13.03;8.97;;;;;;;;;;5034282;28;20446;-68
2022/03/15 05:46:25;;;;;;;11.77;8.43;;;;;;;;;;5029023;28;20184;-68
2022/03/15 05:48:52;;;;;;;14.23;10.23;;;;;;;;;;5031683;28;20188;-68
2022/03/15 05:51:18;;;;;;;16.90;10.20;;;;;;;;;;5037291;28;20290;-67
2022/03/15 05:53:44;;;;;;;16.27;9.40;;;;;;;;;;5034477;28;22630;-68
2022/03/15 05:56:09;;;;;;;15.03;9.57;;;;;;;;;;5032570;28;20459;-68
2022/03/15 05:58:35;;;;;;;16.80;9.67;;;;;;;;;;5033143;28;20209;-68
2022/03/15 06:01:00;;;;;;;12.77;9.00;;;;;;;;;;5029020;28;20270;-68
2022/03/15 06:03:26;;;;;;;14.97;9.50;;;;;;;;;;5032522;28;20198;-68
2022/03/15 06:05:52;;;;;;;14.90;9.87;;;;;;;;;;5038170;28;20179;-68
2022/03/15 06:08:17;;;;;;;14.83;10.17;;;;;;;;;;5032302;28;20187;-68
2022/03/15 06:10:43;;;;;;;11.73;9.73;;;;;;;;;;5036733;28;20486;-68
2022/03/15 06:13:08;;;;;;;16.23;10.23;;;;;;;;;;5025620;28;20456;-67
2022/03/15 06:15:33;;;;;;;15.40;11.10;;;;;;;;;;5031494;28;20184;-68
2022/03/15 06:18:01;;;;;;;13.53;9.83;;;;;;;;;;5035023;28;20184;-68
2022/03/15 06:20:27;;;;;;;16.47;10.03;;;;;;;;;;5029310;28;20275;-68
2022/03/15 06:22:52;;;;;;;18.60;10.30;;;;;;;;;;5035846;28;20516;-68
2022/03/15 06:25:18;;;;;;;13.13;10.30;;;;;;;;;;5036291;28;20429;-68
2022/03/15 06:27:43;;;;;;;15.13;10.10;;;;;;;;;;5025115;28;20974;-69
2022/03/15 06:30:10;;;;;;;19.20;11.13;;;;;;;;;;5017629;28;20631;-69
2022/03/15 06:32:35;;;;;;;13.40;11.20;;;;;;;;;;5022171;28;20191;-69
2022/03/15 06:35:05;;;;;;;14.67;10.63;;;;;;;;;;5027218;28;20434;-69
2022/03/15 06:37:31;;;;;;;15.33;10.70;;;;;;;;;;5026757;28;20237;-67
2022/03/15 06:39:56;;;;;;;16.90;11.30;;;;;;;;;;5032111;28;20468;-67
2022/03/15 06:42:22;;;;;;;19.70;11.20;;;;;;;;;;5025645;28;20206;-67
2022/03/15 06:44:47;;;;;;;16.00;11.43;;;;;;;;;;5029388;28;22970;-68
2022/03/15 06:47:12;;;;;;;18.87;11.30;;;;;;;;;;5032132;28;20557;-68
2022/03/15 06:49:38;;;;;;;18.27;10.47;;;;;;;;;;5030136;28;20644;-67
2022/03/15 06:52:04;;;;;;;16.27;11.40;;;;;;;;;;5034358;28;20714;-68
2022/03/15 06:54:29;;;;;;;18.90;10.57;;;;;;;;;;5024439;28;20592;-68
2022/03/15 06:56:56;;;;;;;15.30;10.73;;;;;;;;;;5024127;28;20214;-67
2022/03/15 06:59:21;;;;;;;16.10;11.00;;;;;;;;;;5025102;28;20188;-68
2022/03/15 07:01:46;;;;;;;17.23;10.50;;;;;;;;;;5020765;28;20523;-68
2022/03/15 07:04:12;;;;;;;20.60;9.97;;;;;;;;;;5033645;28;20188;-67
2022/03/15 07:06:37;;;;;;;16.30;10.47;;;;;;;;;;5036268;28;20297;-68
2022/03/15 07:09:03;;;;;;;16.93;11.60;;;;;;;;;;5030035;28;20179;-67
2022/03/15 07:11:28;;;;;;;15.60;10.83;;;;;;;;;;5034821;22;20231;-73
2022/03/15 07:13:53;;;;;;;18.53;12.33;;;;;;;;;;5011436;28;20765;-73
2022/03/15 07:16:19;;;;;;;16.20;11.13;;;;;;;;;;5012199;28;20267;-73
2022/03/15 07:18:45;;;;;;;19.47;12.70;;;;;;;;;;5008588;28;20348;-73
2022/03/15 07:21:11;;;;;;;16.77;11.07;;;;;;;;;;5011735;28;20474;-73
2022/03/15 07:23:36;;;;;;;17.83;12.63;;;;;;;;;;5015138;28;20203;-72
2022/03/15 07:26:01;;;;;;;18.70;11.80;;;;;;;;;;5012960;28;20342;-72
2022/03/15 07:28:27;;;;;;;15.43;11.33;;;;;;;;;;5016576;28;20583;-73
2022/03/15 07:30:52;;;;;;;16.93;10.47;;;;;;;;;;5014119;28;20266;-73
2022/03/15 07:33:17;;;;;;;16.90;11.80;;;;;;;;;;5010596;28;20180;-73
2022/03/15 07:35:43;;;;;;;13.33;11.00;;;;;;;;;;5015528;28;20181;-73
2022/03/15 07:38:08;;;;;;;17.00;11.13;;;;;;;;;;5013651;28;20218;-73
2022/03/15 07:40:34;;;;;;;20.43;12.03;;;;;;;;;;5013450;28;20968;-73
2022/03/15 07:42:59;;;;;;;15.93;11.57;;;;;;;;;;5015176;28;20614;-73
2022/03/15 07:45:24;;;;;;;17.50;11.90;;;;;;;;;;5011765;28;20195;-73
2022/03/15 07:47:50;;;;;;;15.50;12.20;;;;;;;;;;5012017;28;20208;-73
2022/03/15 07:50:16;;;;;;;16.53;10.83;;;;;;;;;;5012927;28;20184;-73
2022/03/15 07:52:41;;;;;;;19.33;10.77;;;;;;;;;;5006352;28;20211;-73
2022/03/15 07:55:07;;;;;;;16.17;11.40;;;;;;;;;;5013561;28;20447;-73
2022/03/15 07:57:32;;;;;;;14.93;10.10;;;;;;;;;;5003735;28;20610;-72
2022/03/15 07:59:57;;;;;;;15.53;10.03;;;;;;;;;;5012044;28;20188;-73
2022/03/15 08:02:23;;;;;;;18.57;11.10;;;;;;;;;;5014196;28;20298;-73
2022/03/15 08:04:48;;;;;;;19.97;12.60;;;;;;;;;;5002020;28;20176;-73
2022/03/15 08:07:13;;;;;;;16.30;11.90;;;;;;;;;;5011781;28;20177;-73
2022/03/15 08:09:39;;;;;;;26.07;12.83;;;;;;;;;;5010037;28;20253;-73
2022/03/15 08:12:05;;;;;;;19.73;13.33;;;;;;;;;;5012259;28;20259;-73
2022/03/15 08:14:30;;;;;;;19.00;13.50;;;;;;;;;;5014322;28;20210;-73
2022/03/15 08:16:55;;;;;;;17.30;12.57;;;;;;;;;;5013294;28;20190;-73
2022/03/15 08:19:21;;;;;;;16.00;11.67;;;;;;;;;;5007972;28;20215;-73
2022/03/15 08:21:46;;;;;;;18.33;13.27;;;;;;;;;;5006402;28;20600;-73
2022/03/15 08:24:11;;;;;;;23.30;12.00;;;;;;;;;;5028673;28;20246;-73
2022/03/15 08:26:40;;;;;;;20.40;10.80;;;;;;;;;;5002713;28;21308;-71
2022/03/15 08:29:06;;;;;;;15.87;11.43;;;;;;;;;;4995570;28;20192;-70
2022/03/15 08:31:31;;;;;;;17.07;12.60;;;;;;;;;;5014630;28;20462;-70
2022/03/15 08:33:57;;;;;;;23.30;12.63;;;;;;;;;;5013198;28;20457;-70
2022/03/15 08:36:22;;;;;;;22.73;12.30;;;;;;;;;;5013803;28;20195;-70
2022/03/15 08:38:48;;;;;;;31.77;22.30;;;;;;;;;;5004900;28;20276;-70
2022/03/15 08:41:13;;;;;;;27.67;22.00;;;;;;;;;;5010086;28;20212;-70
2022/03/15 08:43:38;;;;;;;29.97;24.93;;;;;;;;;;5011785;28;20185;-70
2022/03/15 08:46:04;;;;;;;22.70;16.30;;;;;;;;;;5008940;28;20188;-70
2022/03/15 08:48:29;;;;;;;18.73;14.30;;;;;;;;;;5010004;28;20208;-70
2022/03/15 08:50:55;;;;;;;24.40;14.10;;;;;;;;;;5013711;28;20188;-70
2022/03/15 08:53:20;;;;;;;23.70;14.57;;;;;;;;;;5015356;28;20591;-70
2022/03/15 08:55:46;;;;;;;15.97;12.87;;;;;;;;;;5008192;28;20584;-69
2022/03/15 08:58:11;;;;;;;18.10;11.70;;;;;;;;;;5012330;28;20192;-70
2022/03/15 09:00:37;;;;;;;22.67;12.93;;;;;;;;;;5014379;28;20190;-70
2022/03/15 09:03:02;;;;;;;18.47;12.77;;;;;;;;;;5009388;28;20204;-70
2022/03/15 09:05:28;;;;;;;25.00;14.73;;;;;;;;;;5003951;28;20603;-70
2022/03/15 09:07:53;;;;;;;31.30;14.13;;;;;;;;;;5006312;28;20184;-72
2022/03/15 09:10:19;;;;;;;25.93;14.60;;;;;;;;;;5011180;28;20533;-72
2022/03/15 09:12:45;;;;;;;21.63;14.30;;;;;;;;;;5004890;28;20246;-72
2022/03/15 09:15:10;;;;;;;19.57;13.87;;;;;;;;;;5000491;28;20466;-72
2022/03/15 09:17:36;;;;;;;23.77;13.90;;;;;;;;;;5012719;28;20196;-70
2022/03/15 09:20:01;;;;;;;24.90;14.77;;;;;;;;;;5008806;28;20214;-70
2022/03/15 09:22:26;;;;;;;21.83;14.10;;;;;;;;;;5012696;28;20216;-70
2022/03/15 09:24:52;;;;;;;20.90;15.00;;;;;;;;;;5009239;28;20181;-70
2022/03/15 09:27:17;;;;;;;20.80;15.40;;;;;;;;;;5009603;28;20272;-70
2022/03/15 09:29:43;;;;;;;25.77;15.83;;;;;;;;;;5006318;28;20181;-70
2022/03/15 09:32:10;;;;;;;22.20;16.10;;;;;;;;;;5005402;28;20215;-70
2022/03/15 09:34:36;;;;;;;23.10;15.60;;;;;;;;;;5008455;28;20194;-70
2022/03/15 09:37:02;;;;;;;27.50;16.97;;;;;;;;;;5015001;28;20463;-70
2022/03/15 09:39:28;;;;;;;22.40;17.10;;;;;;;;;;5011106;28;20447;-70
2022/03/15 09:41:55;;;;;;;24.73;18.03;;;;;;;;;;5002956;28;20604;-70
2022/03/15 09:44:25;;;;;;;24.47;17.23;;;;;;;;;;5014290;28;20181;-70
2022/03/15 09:46:51;;;;;;;26.47;16.80;;;;;;;;;;5006079;28;21273;-71
2022/03/15 09:49:18;;;;;;;26.00;17.50;;;;;;;;;;5008902;28;20535;-70
2022/03/15 09:51:44;;;;;;;34.73;17.87;;;;;;;;;;5012338;28;20550;-70
2022/03/15 09:54:12;;;;;;;32.33;18.57;;;;;;;;;;5003583;28;20471;-70
2022/03/15 09:56:40;;;;;;;24.03;18.13;;;;;;;;;;5005508;28;20454;-70
2022/03/15 09:59:10;;;;;;;29.43;18.87;;;;;;;;;;5002758;28;20438;-70
2022/03/15 10:01:35;;;;;;;29.70;21.10;;;;;;;;;;5009738;28;20466;-70
2022/03/15 10:04:00;;;;;;;30.83;21.77;;;;;;;;;;5009960;28;20427;-70
2022/03/15 10:06:26;;;;;;;31.23;20.77;;;;;;;;;;5007690;28;20232;-70
2022/03/15 10:08:51;;;;;;;29.23;20.13;;;;;;;;;;5006677;28;20212;-70
2022/03/15 10:11:18;;;;;;;31.40;22.03;;;;;;;;;;5012390;28;20219;-70
2022/03/15 10:13:44;;;;;;;34.80;21.40;;;;;;;;;;5006440;28;20180;-70
2022/03/15 10:16:12;;;;;;;32.03;22.83;;;;;;;;;;5009988;28;21210;-70
2022/03/15 10:18:38;;;;;;;33.43;23.53;;;;;;;;;;5011862;28;20991;-70
2022/03/15 10:21:04;;;;;;;34.43;22.70;;;;;;;;;;5007160;28;21370;-71
2022/03/15 10:23:35;;;;;;;29.83;23.23;;;;;;;;;;5016464;28;20178;-70
2022/03/15 10:26:04;;;;;;;36.97;25.13;;;;;;;;;;5004841;28;20427;-70
2022/03/15 10:28:29;;;;;;;33.50;23.97;;;;;;;;;;5010616;28;20430;-70
2022/03/15 10:30:56;;;;;;;35.50;25.33;;;;;;;;;;5010150;28;20798;-70
2022/03/15 10:33:21;;;;;;;36.90;26.10;;;;;;;;;;4997860;28;21138;-70
2022/03/15 10:35:49;;;;;;;34.27;25.47;;;;;;;;;;5007830;28;20530;-70
2022/03/15 10:38:14;;;;;;;32.20;26.40;;;;;;;;;;5014249;28;20250;-68
2022/03/15 10:40:40;;;;;;;36.17;26.00;;;;;;;;;;5005244;28;20431;-69
2022/03/15 10:43:10;;;;;;;37.27;26.47;;;;;;;;;;5010919;28;20196;-69
2022/03/15 10:45:35;;;;;;;34.60;25.33;;;;;;;;;;5011744;28;20476;-69
2022/03/15 10:48:01;;;;;;;40.40;27.90;;;;;;;;;;5013047;28;20805;-70
2022/03/15 10:50:29;;;;;;;35.30;26.10;;;;;;;;;;5013070;28;20431;-70
2022/03/15 10:52:55;;;;;;;39.10;28.87;;;;;;;;;;5006491;28;20755;-70
2022/03/15 10:55:26;;;;;;;35.93;25.83;;;;;;;;;;5001799;28;20441;-70
2022/03/15 10:57:54;;;;;;;32.47;25.03;;;;;;;;;;5002149;28;20645;-70
2022/03/15 11:00:21;;;;;;;32.70;25.30;;;;;;;;;;5007514;28;22027;-70
2022/03/15 11:02:47;;;;;;;36.97;27.57;;;;;;;;;;5004581;28;20538;-70
2022/03/15 11:05:14;;;;;;;34.23;26.20;;;;;;;;;;5008565;28;20490;-70
2022/03/15 11:07:40;;;;;;;33.37;25.47;;;;;;;;;;5016003;28;20434;-70
2022/03/15 11:10:12;;;;;;;31.93;25.33;;;;;;;;;;5014047;28;20517;-70
2022/03/15 11:12:38;;;;;;;31.73;23.93;;;;;;;;;;5011598;28;20606;-70
2022/03/15 11:15:04;;;;;;;36.57;24.77;;;;;;;;;;5002915;28;20430;-70
2022/03/15 11:17:36;;;;;;;31.27;24.60;;;;;;;;;;5013174;28;20438;-70
2022/03/15 11:20:02;;;;;;;30.67;25.10;;;;;;;;;;5014824;28;20537;-70
2022/03/15 11:22:31;;;;;;;34.63;25.87;;;;;;;;;;5010724;28;20565;-70
2022/03/15 11:25:05;;;;;;;31.07;23.57;;;;;;;;;;5012442;28;20435;-70
2022/03/15 11:27:31;;;;;;;33.73;25.10;;;;;;;;;;5013076;28;20437;-70
2022/03/15 11:30:01;;;;;;;32.80;25.63;;;;;;;;;;5010253;28;20434;-70
2022/03/15 11:32:26;;;;;;;32.77;22.57;;;;;;;;;;4996086;28;20585;-70
2022/03/15 11:34:52;;;;;;;28.53;21.80;;;;;;;;;;5004791;28;20434;-70
2022/03/15 11:37:18;;;;;;;31.97;23.67;;;;;;;;;;5011627;28;20192;-70
2022/03/15 11:39:43;;;;;;;28.67;24.50;;;;;;;;;;5015808;28;20291;-70
2022/03/15 11:42:10;;;;;;;30.67;23.67;;;;;;;;;;5013854;28;20209;-68
2022/03/15 11:44:56;;;;;;;30.80;23.33;;;;;;;;;;5010558;28;20214;-69
2022/03/15 11:47:27;;;;;;;34.23;24.93;;;;;;;;;;5005786;28;20435;-68
2022/03/15 11:50:05;;;;;;;31.00;24.17;;;;;;;;;;5011854;28;20443;-70
2022/03/15 11:52:52;;;;;;;33.00;24.70;;;;;;;;;;5013073;28;20466;-70
2022/03/15 11:55:20;;;;;;;32.33;23.40;;;;;;;;;;5011195;28;20618;-70
2022/03/15 11:57:51;;;;;;;33.50;23.43;;;;;;;;;;5012955;28;20449;-70
2022/03/15 12:00:37;;;;;;;31.40;22.13;;;;;;;;;;5013170;28;20904;-70
2022/03/15 12:03:06;;;;;;;31.67;23.10;;;;;;;;;;5010287;28;20477;-70
2022/03/15 12:05:40;;;;;;;29.30;22.70;;;;;;;;;;5008275;28;20452;-70
2022/03/15 12:08:12;;;;;;;32.40;22.90;;;;;;;;;;5009946;28;20442;-69
2022/03/15 12:10:38;;;;;;;31.03;24.20;;;;;;;;;;5011341;28;20446;-70
2022/03/15 12:13:05;;;;;;;33.47;24.33;;;;;;;;;;5001960;28;20467;-70
2022/03/15 12:15:38;;;;;;;36.17;24.53;;;;;;;;;;5007137;28;20223;-70
2022/03/15 12:21:02;;;;;;;34.70;24.93;;;;;;;;;;5000598;28;20484;-71
2022/03/15 12:23:28;;;;;;;34.23;24.13;;;;;;;;;;5008792;28;20998;-70
2022/03/15 12:25:54;;;;;;;30.37;23.43;;;;;;;;;;5005398;28;20477;-70
2022/03/15 12:28:27;;;;;;;32.47;23.77;;;;;;;;;;5001870;28;25950;-70
2022/03/15 12:30:53;;;;;;;23.87;19.23;;;;;;;;;;5006651;28;20442;-71
2022/03/15 12:33:26;;;;;;;29.90;21.97;;;;;;;;;;5011069;28;20971;-71
2022/03/15 12:35:57;;;;;;;27.77;20.20;;;;;;;;;;5009560;28;21411;-70
2022/03/15 12:38:30;;;;;;;28.77;20.77;;;;;;;;;;5009572;28;20931;-71
2022/03/15 12:40:55;;;;;;;25.20;19.10;;;;;;;;;;5008590;28;20435;-70
2022/03/15 12:43:21;;;;;;;26.77;18.90;;;;;;;;;;5010388;28;20435;-70
2022/03/15 12:45:47;;;;;;;27.10;21.23;;;;;;;;;;5005481;28;20177;-70
2022/03/15 12:48:15;;;;;;;30.33;21.00;;;;;;;;;;5008557;28;20514;-70
2022/03/15 12:50:41;;;;;;;32.23;19.27;;;;;;;;;;5008514;28;20185;-70
2022/03/15 12:53:12;;;;;;;27.30;21.77;;;;;;;;;;5011195;28;21719;-70
2022/03/15 12:55:41;;;;;;;29.83;22.03;;;;;;;;;;5009410;28;20353;-70
2022/03/15 12:58:09;;;;;;;27.30;20.23;;;;;;;;;;5008057;28;20435;-70
2022/03/15 13:00:36;;;;;;;32.10;20.77;;;;;;;;;;5013481;28;20704;-70
2022/03/15 13:03:02;;;;;;;30.83;21.40;;;;;;;;;;5004694;28;21102;-70
2022/03/15 13:05:29;;;;;;;30.97;23.07;;;;;;;;;;5003655;28;20450;-70
2022/03/15 13:07:57;;;;;;;29.73;23.37;;;;;;;;;;5010209;28;20893;-70
2022/03/15 13:10:37;;;;;;;34.63;24.00;;;;;;;;;;5003900;28;21071;-70
2022/03/15 13:13:03;;;;;;;38.10;26.10;;;;;;;;;;4989072;22;20882;-67
2022/03/15 13:15:28;;;;;;;44.27;24.87;;;;;;;;;;5008928;28;20863;-68
2022/03/15 13:17:59;;;;;;;35.57;23.37;;;;;;;;;;4992780;28;20444;-67
2022/03/15 13:20:25;;;;;;;31.33;22.97;;;;;;;;;;4995662;28;20184;-67
2022/03/15 13:23:00;;;;;;;38.23;24.03;;;;;;;;;;4985348;28;20522;-67
2022/03/15 13:25:38;;;;;;;31.57;23.07;;;;;;;;;;4992274;28;20526;-67
2022/03/15 13:28:07;;;;;;;30.00;22.43;;;;;;;;;;4992858;28;20440;-67
2022/03/15 13:30:39;;;;;;;35.27;24.17;;;;;;;;;;4988628;28;20432;-67
2022/03/15 13:33:04;;;;;;;29.53;21.73;;;;;;;;;;4986720;28;20510;-68
2022/03/15 13:35:29;;;;;;;37.97;21.30;;;;;;;;;;4991328;28;21107;-67
2022/03/15 13:37:55;;;;;;;32.50;22.63;;;;;;;;;;4998219;28;20650;-67
2022/03/15 13:40:24;;;;;;;26.30;20.70;;;;;;;;;;4997636;28;20245;-67
2022/03/15 13:42:49;;;;;;;33.03;21.40;;;;;;;;;;4995066;28;20662;-67
2022/03/15 13:45:15;;;;;;;31.83;21.17;;;;;;;;;;4992294;28;20963;-67
2022/03/15 13:47:51;;;;;;;30.57;20.10;;;;;;;;;;4992416;28;20189;-67
2022/03/15 13:50:17;;;;;;;30.40;21.13;;;;;;;;;;4992919;28;20189;-67
2022/03/15 13:52:42;;;;;;;28.53;21.33;;;;;;;;;;4990506;28;20546;-68
2022/03/15 13:55:10;;;;;;;30.00;22.60;;;;;;;;;;4992031;28;20272;-67
2022/03/15 13:57:37;;;;;;;30.20;22.13;;;;;;;;;;4985896;28;20196;-68
2022/03/15 14:00:05;;;;;;;34.27;21.57;;;;;;;;;;4993429;28;20451;-67
2022/03/15 14:02:34;;;;;;;29.63;21.37;;;;;;;;;;4993149;28;20479;-68
2022/03/15 14:05:02;;;;;;;30.40;21.40;;;;;;;;;;4986848;28;20764;-67
2022/03/15 14:07:28;;;;;;;26.90;21.23;;;;;;;;;;4993278;28;20952;-67
2022/03/15 14:10:01;;;;;;;30.23;21.07;;;;;;;;;;4993340;28;20436;-68
2022/03/15 14:12:33;;;;;;;30.93;21.50;;;;;;;;;;4995047;28;20475;-67
2022/03/15 14:15:11;;;;;;;27.30;18.80;;;;;;;;;;4995042;28;20525;-68
2022/03/15 14:17:48;;;;;;;32.60;21.77;;;;;;;;;;4992522;28;20447;-67
2022/03/15 14:20:15;;;;;;;25.53;20.10;;;;;;;;;;4994733;28;20506;-67
2022/03/15 14:22:48;;;;;;;27.50;20.70;;;;;;;;;;5007325;28;20476;-67